| time (UTC) | temp C | wind direction | speed KPH | gust KPH | rain 1hr cm | rain 24hr cm | rain mn cm | humidity % | barometer mb |
| 20260506215001 | 14 | 248 | 3.2 | 6.4 | 0.08 | 0.30 | 0.30 | 100 | 1005.8 |
| 20260506214501 | 14 | 256 | 3.2 | 8.0 | 0.08 | 0.30 | 0.30 | 100 | 1005.8 |
| 20260506213501 | 14 | 238 | 1.6 | 9.7 | 0.05 | 0.28 | 0.28 | 100 | 1005.7 |
| 20260506213003 | 14 | 264 | 3.2 | 8.0 | 0.05 | 0.25 | 0.25 | 100 | 1005.7 |
| 20260506212502 | 14 | 263 | 1.6 | 11.3 | 0.03 | 0.23 | 0.23 | 100 | 1005.9 |
| 20260506212003 | 14 | 303 | 3.2 | 11.3 | 0.03 | 0.23 | 0.23 | 100 | 1005.9 |
| 20260506211503 | 14 | 243 | 4.8 | 11.3 | 0.05 | 0.23 | 0.23 | 100 | 1005.7 |
| 20260506211002 | 14 | 262 | 3.2 | 11.3 | 0.05 | 0.23 | 0.23 | 100 | 1005.7 |
| 20260506210502 | 14 | 257 | 3.2 | 9.7 | 0.05 | 0.23 | 0.23 | 100 | 1005.9 |
| 20260506210005 | 14 | 323 | 4.8 | 9.7 | 0.08 | 0.23 | 0.23 | 100 | 1005.7 |
| 20260506205503 | 14 | 274 | 3.2 | 8.0 | 0.08 | 0.23 | 0.23 | 100 | 1005.8 |
| 20260506205002 | 14 | 241 | 1.6 | 9.7 | 0.08 | 0.23 | 0.23 | 100 | 1005.8 |
| 20260506204002 | 14 | 239 | 3.2 | 6.4 | 0.10 | 0.23 | 0.23 | 100 | 1006.2 |
| 20260506203502 | 14 | 248 | 1.6 | 12.9 | 0.10 | 0.23 | 0.23 | 100 | 1006.2 |
| 20260506203002 | 14 | 243 | 3.2 | 12.9 | 0.08 | 0.20 | 0.20 | 99 | 1006.2 |
| 20260506202504 | 14 | 237 | 4.8 | 12.9 | 0.08 | 0.20 | 0.20 | 99 | 1006.1 |
| 20260506201502 | 14 | 221 | 3.2 | 6.4 | 0.05 | 0.18 | 0.18 | 99 | 1006.1 |
| 20260506201002 | 14 | 238 | 3.2 | 6.4 | 0.05 | 0.18 | 0.18 | 99 | 1006.2 |
| 20260506200504 | 14 | 57 | 3.2 | 6.4 | 0.05 | 0.18 | 0.18 | 99 | 1006.2 |
| 20260506200001 | 14 | 238 | 3.2 | 8.0 | 0.03 | 0.15 | 0.15 | 99 | 1006.3 |
| 20260506195501 | 14 | 243 | 3.2 | 8.0 | 0.03 | 0.15 | 0.15 | 99 | 1006.3 |
| 20260506195002 | 14 | 238 | 3.2 | 8.0 | 0.03 | 0.15 | 0.15 | 99 | 1006.3 |
| 20260506194001 | 14 | 255 | 3.2 | 14.5 | 0.00 | 0.13 | 0.13 | 99 | 1006.3 |
| 20260506193502 | 14 | 233 | 1.6 | 9.7 | 0.00 | 0.13 | 0.13 | 99 | 1006.5 |
| 20260506193001 | 14 | 271 | 3.2 | 9.7 | 0.00 | 0.13 | 0.13 | 99 | 1006.4 |
| 20260506192502 | 14 | 216 | 4.8 | 9.7 | 0.00 | 0.13 | 0.13 | 99 | 1006.4 |
| 20260506191502 | 14 | 231 | 4.8 | 9.7 | 0.03 | 0.13 | 0.13 | 98 | 1006.6 |
| 20260506191001 | 14 | 293 | 3.2 | 9.7 | 0.03 | 0.13 | 0.13 | 98 | 1006.6 |
| 20260506190501 | 13 | 274 | 6.4 | 17.7 | 0.03 | 0.13 | 0.13 | 98 | 1006.6 |
| 20260506190001 | 14 | 272 | 1.6 | 17.7 | 0.05 | 0.13 | 0.13 | 98 | 1006.7 |
| 20260506185501 | 13 | 250 | 4.8 | 12.9 | 0.05 | 0.13 | 0.13 | 98 | 1006.7 |
| 20260506185001 | 13 | 313 | 3.2 | 16.1 | 0.05 | 0.13 | 0.13 | 98 | 1006.8 |
| 20260506184501 | 13 | 261 | 4.8 | 16.1 | 0.05 | 0.13 | 0.13 | 98 | 1006.8 |
| 20260506184002 | 13 | 210 | 4.8 | 17.7 | 0.08 | 0.13 | 0.13 | 98 | 1006.8 |
| 20260506183503 | 14 | 216 | 4.8 | 22.5 | 0.08 | 0.13 | 0.13 | 98 | 1006.8 |
| 20260506183001 | 14 | 197 | 8.0 | 22.5 | 0.10 | 0.13 | 0.13 | 97 | 1006.8 |
| 20260506182001 | 14 | 304 | 6.4 | 17.7 | 0.10 | 0.10 | 0.10 | 97 | 1006.9 |
| 20260506181502 | 14 | 238 | 3.2 | 9.7 | 0.10 | 0.10 | 0.10 | 97 | 1006.9 |
| 20260506181000 | 14 | 217 | 3.2 | 14.5 | 0.10 | 0.10 | 0.10 | 96 | 1006.8 |
| 20260506180501 | 14 | 212 | 4.8 | 14.5 | 0.10 | 0.10 | 0.10 | 96 | 1006.9 |
| 20260506180006 | 14 | 205 | 3.2 | 14.5 | 0.08 | 0.08 | 0.08 | 96 | 1007.0 |
| 20260506175004 | 14 | 282 | 4.8 | 12.9 | 0.08 | 0.08 | 0.08 | 95 | 1006.9 |
| 20260506174502 | 14 | 210 | 4.8 | 9.7 | 0.08 | 0.08 | 0.08 | 94 | 1007.1 |
| 20260506174002 | 15 | 253 | 4.8 | 9.7 | 0.05 | 0.05 | 0.05 | 94 | 1007.0 |
| 20260506173501 | 15 | 342 | 3.2 | 8.0 | 0.05 | 0.05 | 0.05 | 94 | 1007.2 |
| 20260506173004 | 15 | 241 | 4.8 | 8.0 | 0.03 | 0.03 | 0.03 | 93 | 1007.5 |
| 20260506172503 | 15 | 300 | 3.2 | 11.3 | 0.03 | 0.03 | 0.03 | 92 | 1007.3 |
| 20260506172001 | 15 | 290 | 4.8 | 11.3 | 0.00 | 0.00 | 0.00 | 89 | 1007.5 |
| 20260506171504 | 15 | 237 | 3.2 | 8.0 | 0.00 | 0.00 | 0.00 | 89 | 1007.8 |
| 20260506171002 | 16 | 274 | 3.2 | 9.7 | 0.00 | 0.00 | 0.00 | 87 | 1008.0 |
| 20260506170502 | 16 | 191 | 4.8 | 12.9 | 0.00 | 0.00 | 0.00 | 84 | 1008.0 |
| 20260506165002 | 17 | 214 | 4.8 | 14.5 | 0.00 | 0.00 | 0.00 | 78 | 1008.1 |
| 20260506164501 | 17 | 253 | 3.2 | 17.7 | 0.00 | 0.00 | 0.00 | 78 | 1008.0 |
| 20260506164002 | 17 | 257 | 4.8 | 17.7 | 0.00 | 0.00 | 0.00 | 77 | 1008.0 |
| 20260506163501 | 18 | 264 | 4.8 | 14.5 | 0.00 | 0.00 | 0.00 | 74 | 1007.9 |
| 20260506163001 | 18 | 256 | 4.8 | 14.5 | 0.00 | 0.00 | 0.00 | 74 | 1008.0 |
| 20260506162502 | 17 | 243 | 6.4 | 14.5 | 0.00 | 0.00 | 0.00 | 73 | 1007.8 |
| 20260506162001 | 18 | 266 | 6.4 | 11.3 | 0.00 | 0.00 | 0.00 | 74 | 1007.9 |
| 20260506161500 | 18 | 237 | 4.8 | 9.7 | 0.00 | 0.00 | 0.00 | 71 | 1007.9 |
| 20260506161001 | 18 | 216 | 4.8 | 9.7 | 0.00 | 0.00 | 0.00 | 70 | 1007.8 |
| 20260506160501 | 18 | 283 | 4.8 | 11.3 | 0.00 | 0.00 | 0.00 | 68 | 1007.9 |
| 20260506160001 | 19 | 259 | 3.2 | 14.5 | 0.00 | 0.00 | 0.00 | 70 | 1007.9 |
| 20260506155001 | 19 | 224 | 4.8 | 16.1 | 0.00 | 0.00 | 0.00 | 69 | 1008.3 |
| 20260506154500 | 18 | 295 | 6.4 | 14.5 | 0.00 | 0.00 | 0.00 | 69 | 1008.4 |
| 20260506154001 | 18 | 209 | 4.8 | 12.9 | 0.00 | 0.00 | 0.00 | 69 | 1008.5 |
| 20260506153501 | 18 | 290 | 6.4 | 16.1 | 0.00 | 0.00 | 0.00 | 68 | 1008.3 |
| 20260506153002 | 19 | 252 | 8.0 | 16.1 | 0.00 | 0.00 | 0.00 | 67 | 1008.3 |
| 20260506152501 | 19 | 278 | 4.8 | 16.1 | 0.00 | 0.00 | 0.00 | 68 | 1008.3 |
| 20260506152001 | 19 | 274 | 6.4 | 16.1 | 0.00 | 0.00 | 0.00 | 69 | 1008.3 |
| 20260506151503 | 19 | 120 | 3.2 | 9.7 | 0.00 | 0.00 | 0.00 | 72 | 1008.4 |
| 20260506151002 | 18 | 247 | 4.8 | 9.7 | 0.00 | 0.00 | 0.00 | 71 | 1008.4 |
| 20260506150502 | 18 | 253 | 4.8 | 12.9 | 0.00 | 0.00 | 0.00 | 71 | 1008.4 |
| 20260506150004 | 18 | 287 | 3.2 | 12.9 | 0.00 | 0.00 | 0.00 | 73 | 1008.4 |
| 20260506145502 | 18 | 234 | 4.8 | 12.9 | 0.00 | 0.00 | 0.00 | 72 | 1008.4 |
| 20260506145002 | 18 | 243 | 4.8 | 11.3 | 0.00 | 0.00 | 0.00 | 73 | 1008.4 |
| 20260506144501 | 18 | 314 | 4.8 | 11.3 | 0.00 | 0.00 | 0.00 | 73 | 1008.4 |
| 20260506144004 | 18 | 322 | 6.4 | 9.7 | 0.00 | 0.00 | 0.00 | 74 | 1008.5 |
| 20260506143501 | 18 | 231 | 4.8 | 11.3 | 0.00 | 0.00 | 0.00 | 73 | 1008.7 |
| 20260506143003 | 17 | 271 | 3.2 | 11.3 | 0.00 | 0.00 | 0.00 | 74 | 1008.7 |
| 20260506142503 | 17 | 276 | 4.8 | 12.9 | 0.00 | 0.00 | 0.00 | 73 | 1008.7 |
| 20260506142002 | 17 | 298 | 6.4 | 12.9 | 0.00 | 0.00 | 0.00 | 74 | 1008.7 |
| 20260506141502 | 18 | 245 | 4.8 | 11.3 | 0.00 | 0.00 | 0.00 | 75 | 1008.6 |
| 20260506141003 | 17 | 250 | 3.2 | 12.9 | 0.00 | 0.00 | 0.00 | 77 | 1008.4 |
| 20260506140502 | 17 | 289 | 4.8 | 12.9 | 0.00 | 0.00 | 0.00 | 77 | 1008.5 |
| 20260506140001 | 17 | 228 | 6.4 | 12.9 | 0.00 | 0.00 | 0.00 | 78 | 1008.6 |
| 20260506135501 | 17 | 243 | 6.4 | 12.9 | 0.00 | 0.00 | 0.00 | 78 | 1008.6 |
| 20260506135001 | 17 | 264 | 4.8 | 17.7 | 0.00 | 0.00 | 0.00 | 79 | 1008.8 |
| 20260506134501 | 16 | 226 | 4.8 | 17.7 | 0.00 | 0.00 | 0.00 | 79 | 1008.7 |
| 20260506134000 | 16 | 276 | 3.2 | 9.7 | 0.00 | 0.00 | 0.00 | 81 | 1008.7 |
| 20260506133501 | 16 | 224 | 1.6 | 11.3 | 0.00 | 0.00 | 0.00 | 81 | 1008.7 |
| 20260506132502 | 16 | 226 | 6.4 | 11.3 | 0.00 | 0.00 | 0.00 | 80 | 1008.5 |
| 20260506132002 | 16 | 244 | 3.2 | 11.3 | 0.00 | 0.00 | 0.00 | 82 | 1008.5 |
| 20260506131501 | 16 | 282 | 4.8 | 11.3 | 0.00 | 0.00 | 0.00 | 83 | 1008.7 |
| 20260506131000 | 15 | 247 | 3.2 | 9.7 | 0.00 | 0.00 | 0.00 | 84 | 1008.8 |
| 20260506130502 | 15 | 241 | 3.2 | 9.7 | 0.00 | 0.00 | 0.00 | 84 | 1008.8 |
| 20260506125502 | 15 | 281 | 4.8 | 12.9 | 0.00 | 0.00 | 0.00 | 85 | 1008.8 |
| 20260506125001 | 15 | 212 | 4.8 | 12.9 | 0.00 | 0.00 | 0.00 | 85 | 1008.7 |
| 20260506124502 | 15 | 282 | 6.4 | 12.9 | 0.00 | 0.00 | 0.00 | 85 | 1008.9 |
| 20260506124003 | 15 | 264 | 1.6 | 9.7 | 0.00 | 0.00 | 0.00 | 85 | 1009.2 |
| 20260506123503 | 15 | 213 | 3.2 | 9.7 | 0.00 | 0.00 | 0.00 | 86 | 1009.3 |
| 20260506122002 | 14 | 296 | 3.2 | 11.3 | 0.00 | 0.00 | 0.00 | 87 | 1009.4 |
| 20260506121003 | 14 | 274 | 1.6 | 12.9 | 0.00 | 0.00 | 0.00 | 87 | 1009.3 |
| 20260506120501 | 14 | 245 | 3.2 | 12.9 | 0.00 | 0.00 | 0.00 | 88 | 1009.2 |
| 20260506120002 | 14 | 240 | 3.2 | 12.9 | 0.00 | 0.00 | 0.00 | 88 | 1009.2 |
| 20260506115501 | 14 | 266 | 3.2 | 8.0 | 0.00 | 0.00 | 0.00 | 88 | 1009.2 |
| 20260506115002 | 14 | 184 | 1.6 | 16.1 | 0.00 | 0.00 | 0.00 | 88 | 1009.3 |
| 20260506114500 | 13 | 259 | 4.8 | 16.1 | 0.00 | 0.00 | 0.00 | 88 | 1009.3 |
| 20260506114001 | 13 | 221 | 3.2 | 6.4 | 0.00 | 0.00 | 0.00 | 88 | 1009.3 |
| 20260506113502 | 13 | 233 | 1.6 | 6.4 | 0.00 | 0.00 | 0.00 | 88 | 1009.3 |
| 20260506113003 | 13 | 297 | 3.2 | 6.4 | 0.00 | 0.00 | 0.00 | 88 | 1009.3 |
| 20260506112500 | 13 | 279 | 1.6 | 8.0 | 0.00 | 0.00 | 0.00 | 89 | 1009.2 |
| 20260506112000 | 13 | 224 | 1.6 | 8.0 | 0.00 | 0.00 | 0.00 | 89 | 1009.1 |
| 20260506111502 | 13 | 280 | 3.2 | 8.0 | 0.00 | 0.00 | 0.00 | 89 | 1009.0 |
| 20260506111001 | 13 | 217 | 3.2 | 8.0 | 0.00 | 0.00 | 0.00 | 90 | 1009.1 |
| 20260506110501 | 13 | 227 | 3.2 | 8.0 | 0.00 | 0.00 | 0.00 | 90 | 1009.2 |
| 20260506110002 | 13 | 218 | 3.2 | 8.0 | 0.00 | 0.00 | 0.00 | 91 | 1009.3 |
| 20260506105501 | 13 | 238 | 1.6 | 8.0 | 0.00 | 0.00 | 0.00 | 92 | 1009.2 |
| 20260506105000 | 13 | 255 | 3.2 | 8.0 | 0.00 | 0.00 | 0.00 | 92 | 1009.3 |
| 20260506104501 | 12 | 288 | 1.6 | 8.0 | 0.00 | 0.00 | 0.00 | 92 | 1009.3 |
| 20260506104002 | 12 | 1 | 3.2 | 8.0 | 0.00 | 0.00 | 0.00 | 92 | 1009.1 |
| 20260506103502 | 12 | 224 | 1.6 | 6.4 | 0.00 | 0.00 | 0.00 | 92 | 1009.3 |
| 20260506103002 | 12 | 269 | 1.6 | 6.4 | 0.00 | 0.00 | 0.00 | 92 | 1009.3 |
| 20260506102502 | 12 | 258 | 1.6 | 6.4 | 0.00 | 0.00 | 0.00 | 93 | 1009.2 |
| 20260506102001 | 12 | 307 | 1.6 | 6.4 | 0.00 | 0.00 | 0.00 | 93 | 1009.1 |
| 20260506101001 | 12 | 245 | 3.2 | 8.0 | 0.00 | 0.00 | 0.00 | 93 | 1009.0 |
| 20260506100500 | 12 | 276 | 1.6 | 8.0 | 0.00 | 0.00 | 0.00 | 93 | 1009.1 |
| 20260506100004 | 12 | 248 | 1.6 | 6.4 | 0.00 | 0.00 | 0.00 | 93 | 1009.1 |
| 20260506095502 | 12 | 305 | 1.6 | 8.0 | 0.00 | 0.00 | 0.00 | 92 | 1009.1 |
| 20260506095000 | 12 | 262 | 1.6 | 8.0 | 0.00 | 0.00 | 0.00 | 92 | 1009.1 |
| 20260506094501 | 12 | 252 | 1.6 | 8.0 | 0.00 | 0.00 | 0.00 | 92 | 1009.1 |
| 20260506094002 | 12 | 242 | 3.2 | 6.4 | 0.00 | 0.00 | 0.00 | 91 | 1009.1 |
| 20260506093502 | 12 | 278 | 1.6 | 4.8 | 0.00 | 0.00 | 0.00 | 91 | 1009.0 |
| 20260506093001 | 12 | 286 | 1.6 | 6.4 | 0.00 | 0.00 | 0.00 | 91 | 1009.0 |
| 20260506092501 | 12 | 334 | 1.6 | 6.4 | 0.00 | 0.00 | 0.00 | 90 | 1009.1 |
| 20260506091501 | 12 | 276 | 3.2 | 11.3 | 0.00 | 0.00 | 0.00 | 91 | 1009.1 |
| 20260506091000 | 12 | 268 | 1.6 | 9.7 | 0.00 | 0.00 | 0.00 | 90 | 1009.1 |
| 20260506090501 | 12 | 278 | 1.6 | 9.7 | 0.00 | 0.00 | 0.00 | 90 | 1009.1 |
| 20260506090002 | 12 | 193 | 3.2 | 6.4 | 0.00 | 0.00 | 0.00 | 90 | 1009.1 |
| 20260506085502 | 12 | 255 | 3.2 | 9.7 | 0.00 | 0.00 | 0.00 | 89 | 1009.2 |
| 20260506085001 | 13 | 278 | 4.8 | 9.7 | 0.00 | 0.00 | 0.00 | 89 | 1009.1 |
| 20260506084502 | 12 | 259 | 1.6 | 11.3 | 0.00 | 0.00 | 0.00 | 89 | 1009.1 |
| 20260506084001 | 13 | 176 | 3.2 | 11.3 | 0.00 | 0.00 | 0.00 | 88 | 1009.1 |
| 20260506082500 | 13 | 245 | 1.6 | 9.7 | 0.00 | 0.00 | 0.00 | 88 | 1009.3 |
| 20260506082001 | 13 | 285 | 3.2 | 8.0 | 0.00 | 0.00 | 0.00 | 88 | 1009.3 |
| 20260506081001 | 13 | 249 | 3.2 | 6.4 | 0.00 | 0.00 | 0.00 | 87 | 1009.2 |
| 20260506080502 | 13 | 329 | 1.6 | 8.0 | 0.00 | 0.00 | 0.00 | 87 | 1009.2 |
| 20260506073502 | 13 | 222 | 1.6 | 11.3 | 0.00 | 0.00 | 0.00 | 86 | 1009.3 |
| 20260506072000 | 13 | 239 | 1.6 | 6.4 | 0.00 | 0.00 | 0.00 | 86 | 1009.4 |
| 20260506071002 | 13 | 205 | 1.6 | 4.8 | 0.00 | 0.00 | 0.00 | 85 | 1009.5 |
| 20260506070502 | 13 | 258 | 1.6 | 4.8 | 0.00 | 0.00 | 0.00 | 84 | 1009.5 |
| 20260506062000 | 14 | 238 | 1.6 | 6.4 | 0.00 | 0.00 | 0.00 | 80 | 1009.1 |
| 20260506061501 | 15 | 217 | 0.0 | 4.8 | 0.00 | 0.00 | 0.00 | 79 | 1009.2 |
| 20260506061000 | 15 | 267 | 0.0 | 11.3 | 0.00 | 0.00 | 0.00 | 78 | 1009.2 |
| 20260506060500 | 15 | 241 | 3.2 | 11.3 | 0.00 | 0.00 | 0.00 | 77 | 1009.0 |
| 20260506051001 | 15 | 262 | 1.6 | 8.0 | 0.00 | 0.00 | 0.00 | 72 | 1009.4 |
| 20260506050500 | 16 | 296 | 3.2 | 9.7 | 0.00 | 0.00 | 0.00 | 72 | 1009.4 |
| 20260506045001 | 16 | 271 | 1.6 | 6.4 | 0.00 | 0.00 | 0.00 | 71 | 1009.4 |
| 20260506044500 | 16 | 240 | 3.2 | 9.7 | 0.00 | 0.00 | 0.00 | 71 | 1009.5 |
| 20260506044000 | 16 | 266 | 3.2 | 9.7 | 0.00 | 0.00 | 0.00 | 71 | 1009.4 |
| 20260506043459 | 16 | 266 | 1.6 | 6.4 | 0.00 | 0.00 | 0.00 | 71 | 1009.4 |
| 20260506042959 | 16 | 294 | 3.2 | 11.3 | 0.00 | 0.00 | 0.00 | 71 | 1009.4 |
| 20260506042500 | 16 | 265 | 1.6 | 11.3 | 0.00 | 0.00 | 0.00 | 70 | 1009.3 |
| 20260506041959 | 16 | 233 | 3.2 | 9.7 | 0.00 | 0.00 | 0.00 | 66 | 1009.4 |
| 20260506041459 | 16 | 289 | 3.2 | 9.7 | 0.00 | 0.00 | 0.00 | 70 | 1009.4 |
| 20260506041000 | 16 | 271 | 3.2 | 8.0 | 0.00 | 0.00 | 0.00 | 70 | 1009.4 |
| 20260506040500 | 16 | 6 | 3.2 | 8.0 | 0.00 | 0.00 | 0.00 | 70 | 1009.4 |
| 20260506040002 | 16 | 276 | 3.2 | 8.0 | 0.00 | 0.00 | 0.00 | 71 | 1009.5 |
| 20260506035502 | 16 | 264 | 1.6 | 8.0 | 0.00 | 0.00 | 0.00 | 70 | 1009.5 |
| 20260506035002 | 16 | 245 | 1.6 | 6.4 | 0.00 | 0.00 | 0.00 | 70 | 1009.4 |
| 20260506034502 | 16 | 266 | 3.2 | 8.0 | 0.00 | 0.00 | 0.00 | 70 | 1009.4 |
| 20260506034003 | 16 | 231 | 3.2 | 8.0 | 0.00 | 0.00 | 0.00 | 70 | 1009.5 |
| 20260506033504 | 16 | 275 | 1.6 | 11.3 | 0.00 | 0.00 | 0.00 | 70 | 1009.5 |
| 20260506033004 | 16 | 303 | 1.6 | 11.3 | 0.00 | 0.00 | 0.00 | 69 | 1009.5 |
| 20260506032503 | 16 | 241 | 1.6 | 6.4 | 0.00 | 0.00 | 0.00 | 70 | 1009.4 |
| 20260506032002 | 16 | 234 | 3.2 | 8.0 | 0.00 | 0.00 | 0.00 | 70 | 1009.5 |
| 20260506031502 | 16 | 240 | 3.2 | 17.7 | 0.00 | 0.00 | 0.00 | 69 | 1009.5 |
| 20260506030503 | 16 | 265 | 3.2 | 9.7 | 0.00 | 0.00 | 0.00 | 69 | 1009.5 |
| 20260506030005 | 16 | 236 | 3.2 | 9.7 | 0.00 | 0.00 | 0.00 | 69 | 1009.5 |
| 20260506025502 | 16 | 235 | 1.6 | 9.7 | 0.00 | 0.00 | 0.00 | 68 | 1009.4 |
| 20260506025002 | 16 | 229 | 3.2 | 11.3 | 0.00 | 0.00 | 0.00 | 68 | 1009.4 |
| 20260506024502 | 16 | 235 | 3.2 | 11.3 | 0.00 | 0.00 | 0.00 | 68 | 1009.3 |
| 20260506024003 | 16 | 245 | 4.8 | 11.3 | 0.00 | 0.00 | 0.00 | 67 | 1009.3 |
| 20260506023003 | 16 | 259 | 4.8 | 11.3 | 0.00 | 0.00 | 0.00 | 67 | 1009.3 |
| 20260506022504 | 16 | 243 | 3.2 | 8.0 | 0.00 | 0.00 | 0.00 | 67 | 1009.3 |
| 20260506022004 | 16 | 265 | 3.2 | 9.7 | 0.00 | 0.00 | 0.00 | 67 | 1009.3 |
| 20260506021504 | 16 | 244 | 1.6 | 9.7 | 0.00 | 0.00 | 0.00 | 66 | 1009.2 |
| 20260506021004 | 16 | 265 | 3.2 | 8.0 | 0.00 | 0.00 | 0.00 | 66 | 1009.2 |
| 20260506020003 | 16 | 283 | 3.2 | 8.0 | 0.00 | 0.00 | 0.00 | 66 | 1009.4 |
| 20260506015503 | 16 | 286 | 1.6 | 8.0 | 0.00 | 0.00 | 0.00 | 65 | 1009.3 |
| 20260506015002 | 16 | 269 | 4.8 | 14.5 | 0.00 | 0.00 | 0.00 | 65 | 1009.3 |
| 20260506014502 | 16 | 219 | 4.8 | 14.5 | 0.00 | 0.00 | 0.00 | 65 | 1009.3 |
| 20260506014002 | 16 | 245 | 1.6 | 4.8 | 0.00 | 0.00 | 0.00 | 65 | 1009.2 |
| 20260506013502 | 17 | 162 | 0.0 | 9.7 | 0.00 | 0.00 | 0.00 | 65 | 1009.1 |
| 20260506013001 | 17 | 66 | 1.6 | 9.7 | 0.00 | 0.00 | 0.00 | 64 | 1009.1 |
| 20260506012502 | 17 | 246 | 0.0 | 9.7 | 0.00 | 0.00 | 0.00 | 64 | 1009.0 |
| 20260506012004 | 17 | 264 | 1.6 | 9.7 | 0.00 | 0.00 | 0.00 | 64 | 1009.0 |
| 20260506011502 | 17 | 247 | 3.2 | 9.7 | 0.00 | 0.00 | 0.00 | 63 | 1008.9 |
| 20260506011002 | 17 | 206 | 4.8 | 8.0 | 0.00 | 0.00 | 0.00 | 63 | 1008.8 |
| 20260506010502 | 17 | 220 | 1.6 | 8.0 | 0.00 | 0.00 | 0.00 | 63 | 1008.7 |
| 20260506010002 | 17 | 189 | 0.0 | 14.5 | 0.00 | 0.00 | 0.00 | 63 | 1008.8 |
| 20260506005504 | 17 | 262 | 1.6 | 14.5 | 0.00 | 0.00 | 0.00 | 61 | 1008.6 |
| 20260506005001 | 17 | 264 | 3.2 | 11.3 | 0.00 | 0.00 | 0.00 | 61 | 1008.6 |
| 20260506004502 | 17 | 210 | 1.6 | 8.0 | 0.00 | 0.00 | 0.00 | 62 | 1008.5 |
| 20260506004001 | 18 | 193 | 1.6 | 8.0 | 0.00 | 0.00 | 0.00 | 61 | 1008.5 |
| 20260506003003 | 18 | 251 | 1.6 | 9.7 | 0.00 | 0.00 | 0.00 | 61 | 1008.4 |
| 20260506002002 | 18 | 263 | 4.8 | 14.5 | 0.00 | 0.00 | 0.00 | 60 | 1008.3 |
| 20260506001502 | 18 | 238 | 3.2 | 14.5 | 0.00 | 0.00 | 0.00 | 61 | 1008.1 |
| 20260506001002 | 18 | 245 | 4.8 | 14.5 | 0.00 | 0.00 | 0.00 | 59 | 1008.1 |
| 20260506000502 | 18 | 284 | 6.4 | 12.9 | 0.00 | 0.00 | 0.00 | 60 | 1007.9 |
| 20260506000005 | 18 | 290 | 3.2 | 14.5 | 0.00 | 0.00 | 0.00 | 60 | 1007.9 |
| 20260505235503 | 18 | 228 | 6.4 | 14.5 | 0.00 | 0.00 | 0.00 | 59 | 1007.8 |
| 20260505235001 | 18 | 278 | 6.4 | 14.5 | 0.00 | 0.00 | 0.00 | 59 | 1007.8 |
| 20260505233503 | 19 | 266 | 4.8 | 12.9 | 0.00 | 0.00 | 0.00 | 58 | 1007.8 |
| 20260505232503 | 19 | 283 | 6.4 | 12.9 | 0.00 | 0.00 | 0.00 | 57 | 1007.7 |
| 20260505231502 | 20 | 214 | 6.4 | 17.7 | 0.00 | 0.00 | 0.00 | 56 | 1007.5 |
| 20260505231002 | 20 | 271 | 6.4 | 17.7 | 0.00 | 0.00 | 0.00 | 55 | 1007.4 |
| 20260505230004 | 20 | 280 | 4.8 | 12.9 | 0.00 | 0.00 | 0.00 | 56 | 1007.3 |
| 20260505225502 | 20 | 310 | 6.4 | 12.9 | 0.00 | 0.00 | 0.00 | 56 | 1007.3 |
| 20260505225001 | 20 | 313 | 4.8 | 12.9 | 0.00 | 0.00 | 0.00 | 56 | 1007.3 |
| 20260505224501 | 20 | 306 | 6.4 | 16.1 | 0.00 | 0.00 | 0.00 | 55 | 1006.9 |
| 20260505224004 | 20 | 228 | 6.4 | 16.1 | 0.00 | 0.00 | 0.00 | 57 | 1006.9 |
| 20260505223002 | 20 | 246 | 8.0 | 19.3 | 0.00 | 0.00 | 0.00 | 55 | 1006.8 |
| 20260505222503 | 20 | 229 | 6.4 | 19.3 | 0.00 | 0.00 | 0.00 | 55 | 1006.7 |
| 20260505222002 | 20 | 343 | 6.4 | 20.9 | 0.00 | 0.00 | 0.00 | 55 | 1006.6 |
| 20260505221003 | 21 | 251 | 9.7 | 22.5 | 0.00 | 0.00 | 0.00 | 53 | 1006.6 |
| 20260505220503 | 21 | 226 | 9.7 | 22.5 | 0.00 | 0.00 | 0.00 | 52 | 1006.5 |
| 20260505220001 | 21 | 162 | 9.7 | 22.5 | 0.00 | 0.00 | 0.00 | 52 | 1006.7 |
| 20260505215501 | 21 | 296 | 6.4 | 17.7 | 0.00 | 0.00 | 0.00 | 53 | 1006.7 |